Time;durP1;ratioP1;P1;durP2;ratioP2;P2;SDS_P1;SDS_P2;PMS_P1;PMS_P2;Temp;Humidity;BMP_temperature;BMP_pressure;BME280_temperature;BME280_humidity;BME280_pressure;Samples;Min_cycle;Max_cycle;Signal;HPM_P1;HPM_P2
2021/05/04 00:02:07;;;;;;;1.67;1.03;;;;;;;9.76;49.24;99660.19;5071920;28;20177;-73
2021/05/04 00:04:33;;;;;;;2.43;1.40;;;;;;;9.78;48.82;99650.53;5072299;28;20203;-70
2021/05/04 00:06:58;;;;;;;1.93;0.63;;;;;;;9.73;49.10;99636.28;5071895;28;20689;-74
2021/05/04 00:09:24;;;;;;;1.73;1.53;;;;;;;9.73;49.15;99628.91;5071985;28;20645;-73
2021/05/04 00:11:50;;;;;;;0.80;0.80;;;;;;;9.73;49.64;99626.19;5071954;28;20527;-72
2021/05/04 00:14:15;;;;;;;1.10;1.00;;;;;;;9.74;49.06;99616.06;5071744;28;20181;-72
2021/05/04 00:16:41;;;;;;;1.13;1.00;;;;;;;9.79;48.87;99607.69;5071753;28;20166;-74
2021/05/04 00:19:06;;;;;;;1.10;0.80;;;;;;;9.81;49.45;99598.06;5071773;28;20217;-71
2021/05/04 00:21:31;;;;;;;1.60;1.50;;;;;;;9.80;49.29;99593.72;5071736;28;20671;-72
2021/05/04 00:23:57;;;;;;;1.13;1.03;;;;;;;9.76;49.55;99583.81;5071652;28;20201;-72
2021/05/04 00:26:22;;;;;;;1.30;1.20;;;;;;;9.83;49.10;99578.63;5071610;28;20178;-74
2021/05/04 00:28:48;;;;;;;1.13;1.13;;;;;;;9.80;49.13;99582.81;5071603;28;20627;-72
2021/05/04 00:31:14;;;;;;;1.50;1.40;;;;;;;9.82;49.14;99574.31;5071516;28;20178;-73
2021/05/04 00:33:39;;;;;;;1.30;1.20;;;;;;;9.85;49.12;99568.22;5071505;28;20201;-71
2021/05/04 00:36:05;;;;;;;0.97;0.97;;;;;;;9.81;48.84;99554.41;5071511;28;20202;-71
2021/05/04 00:38:30;;;;;;;1.27;0.97;;;;;;;9.82;49.38;99545.09;5071445;28;20626;-72
2021/05/04 00:40:55;;;;;;;1.00;1.00;;;;;;;9.81;49.28;99531.78;5071486;28;20257;-71
2021/05/04 00:43:26;;;;;;;1.87;1.37;;;;;;;9.81;49.58;99531.78;5071221;28;20575;-73
2021/05/04 00:45:51;;;;;;;0.77;0.77;;;;;;;9.87;48.75;99516.84;5071320;28;20181;-72
2021/05/04 00:48:17;;;;;;;1.43;1.33;;;;;;;9.87;49.07;99521.50;5071110;28;20575;-73
2021/05/04 00:50:42;;;;;;;1.67;1.57;;;;;;;9.90;48.99;99518.91;5070982;28;20175;-71
2021/05/04 00:53:08;;;;;;;2.03;1.53;;;;;;;9.89;49.09;99498.22;5071123;28;20186;-72
2021/05/04 00:55:33;;;;;;;0.80;0.80;;;;;;;9.84;49.14;99491.03;5071252;28;20250;-74
2021/05/04 00:58:01;;;;;;;1.10;1.10;;;;;;;9.91;48.73;99484.25;5071564;28;20174;-72
2021/05/04 01:00:26;;;;;;;1.57;1.13;;;;;;;9.90;48.95;99482.63;5071154;28;20715;-71
2021/05/04 01:02:52;;;;;;;1.50;1.20;;;;;;;9.91;49.37;99474.13;5071134;28;20205;-72
2021/05/04 01:05:17;;;;;;;0.50;0.50;;;;;;;9.96;48.75;99467.66;5071284;28;20166;-71
2021/05/04 01:07:43;;;;;;;1.23;0.77;;;;;;;9.93;49.13;99455.50;5073150;28;20684;-71
2021/05/04 01:10:09;;;;;;;1.73;1.63;;;;;;;9.96;48.55;99443.91;5072269;28;20630;-70
2021/05/04 01:12:34;;;;;;;2.40;1.63;;;;;;;9.95;48.67;99433.31;5072110;28;20709;-70
2021/05/04 01:15:00;;;;;;;1.30;1.20;;;;;;;9.87;50.04;99426.00;5070824;28;20196;-70
2021/05/04 01:17:26;;;;;;;0.90;0.90;;;;;;;9.93;48.89;99422.75;5070875;28;20175;-70
2021/05/04 01:19:51;;;;;;;1.17;1.17;;;;;;;9.99;48.71;99410.53;5070776;28;20528;-70
2021/05/04 01:22:17;;;;;;;1.30;1.20;;;;;;;9.98;49.13;99406.19;5070630;28;20558;-70
2021/05/04 01:24:42;;;;;;;0.73;0.70;;;;;;;10.00;48.88;99395.75;5069403;28;20170;-70
2021/05/04 01:27:08;;;;;;;1.57;1.23;;;;;;;9.93;49.00;99373.63;5070783;28;20193;-70
2021/05/04 01:29:33;;;;;;;1.00;1.00;;;;;;;9.94;49.22;99368.97;5069436;28;20248;-70
2021/05/04 01:31:59;;;;;;;1.40;1.23;;;;;;;9.92;48.99;99363.06;5070497;28;20173;-70
2021/05/04 01:34:25;;;;;;;1.30;1.20;;;;;;;9.93;49.67;99351.81;5070592;28;20240;-70
2021/05/04 01:36:50;;;;;;;1.57;1.47;;;;;;;9.99;49.42;99336.06;5070723;28;20174;-71
2021/05/04 01:39:16;;;;;;;1.30;1.07;;;;;;;9.98;48.97;99328.97;5070581;28;20198;-72
2021/05/04 01:41:41;;;;;;;1.50;1.40;;;;;;;9.99;48.90;99323.19;5070674;28;20695;-70
2021/05/04 01:44:09;;;;;;;1.10;1.00;;;;;;;10.03;48.86;99306.94;5070535;28;20167;-72
2021/05/04 01:46:35;;;;;;;1.67;1.37;;;;;;;10.01;49.54;99307.28;5070406;28;20194;-70
2021/05/04 01:49:03;;;;;;;0.50;0.50;;;;;;;10.05;48.12;99293.75;5070319;28;20802;-70
2021/05/04 01:51:29;;;;;;;3.37;0.67;;;;;;;10.04;48.59;99276.59;5070610;28;20500;-70
2021/05/04 01:53:58;;;;;;;1.70;1.10;;;;;;;9.98;49.18;99275.22;5070540;28;20589;-70
2021/05/04 01:56:24;;;;;;;0.77;0.77;;;;;;;10.06;48.85;99279.78;5070864;28;20166;-70
2021/05/04 01:58:50;;;;;;;1.53;1.43;;;;;;;10.06;48.78;99263.41;5070391;28;20198;-70
2021/05/04 02:01:16;;;;;;;1.20;1.10;;;;;;;10.09;48.84;99242.84;5070891;28;20634;-71
2021/05/04 02:03:42;;;;;;;1.60;1.43;;;;;;;10.12;48.94;99234.75;5071777;28;20173;-70
2021/05/04 02:06:07;;;;;;;1.30;1.20;;;;;;;10.20;48.26;99238.53;5074252;28;20561;-71
2021/05/04 02:08:33;;;;;;;0.83;0.83;;;;;;;10.09;48.66;99227.25;5074319;28;20178;-71
2021/05/04 02:10:58;;;;;;;2.00;1.80;;;;;;;10.07;48.40;99207.69;5074173;28;20173;-70
2021/05/04 02:13:24;;;;;;;1.57;1.27;;;;;;;10.17;48.49;99205.69;5074070;28;20167;-70
2021/05/04 02:15:51;;;;;;;1.03;0.60;;;;;;;10.11;49.43;99199.63;5073990;28;20528;-71
2021/05/04 02:18:16;;;;;;;0.70;0.70;;;;;;;10.08;48.80;99183.94;5074034;28;20257;-70
2021/05/04 02:20:42;;;;;;;1.10;1.00;;;;;;;10.09;48.74;99183.59;5073972;28;20591;-70
2021/05/04 02:23:07;;;;;;;1.40;1.30;;;;;;;10.09;49.35;99172.66;5073944;28;20648;-71
2021/05/04 02:25:32;;;;;;;1.23;1.17;;;;;;;10.20;48.50;99155.88;5072517;28;20269;-70
2021/05/04 02:27:58;;;;;;;1.67;1.33;;;;;;;10.19;48.72;99146.88;5073947;28;20235;-70
2021/05/04 02:30:23;;;;;;;0.67;0.67;;;;;;;10.26;48.44;99138.94;5073735;28;20181;-70
2021/05/04 02:32:48;;;;;;;1.67;1.47;;;;;;;10.20;48.34;99132.09;5073566;28;20662;-70
2021/05/04 02:35:14;;;;;;;1.20;1.10;;;;;;;10.24;48.18;99115.84;5073713;28;20170;-70
2021/05/04 02:37:40;;;;;;;1.73;1.37;;;;;;;10.33;48.00;99108.34;5073819;28;20706;-70
2021/05/04 02:40:06;;;;;;;1.10;1.00;;;;;;;10.39;47.46;99101.50;5073661;28;20531;-71
2021/05/04 02:42:31;;;;;;;2.40;2.20;;;;;;;10.40;47.79;99098.44;5073414;28;20262;-73
2021/05/04 02:44:56;;;;;;;0.63;0.63;;;;;;;10.40;47.84;99092.97;5073491;28;20381;-70
2021/05/04 02:47:22;;;;;;;1.17;1.10;;;;;;;10.34;48.04;99077.97;5073374;28;20657;-70
2021/05/04 02:49:47;;;;;;;1.17;1.07;;;;;;;10.34;48.42;99066.28;5073386;28;20175;-73
2021/05/04 02:52:13;;;;;;;1.33;1.23;;;;;;;10.39;47.60;99063.28;5073429;28;20178;-71
2021/05/04 02:54:38;;;;;;;1.10;1.00;;;;;;;10.38;48.19;99039.88;5073380;28;20179;-75
2021/05/04 02:57:04;;;;;;;1.00;0.90;;;;;;;10.42;47.79;99027.13;5073495;28;20163;-72
2021/05/04 02:59:29;;;;;;;1.50;1.40;;;;;;;10.46;48.20;99014.38;5073293;28;20177;-70
2021/05/04 03:01:54;;;;;;;2.40;1.43;;;;;;;10.51;48.19;99016.06;5073060;28;20167;-70
2021/05/04 03:04:20;;;;;;;0.60;0.60;;;;;;;10.52;47.77;99010.25;5073381;28;20209;-70
2021/05/04 03:06:45;;;;;;;1.10;1.00;;;;;;;10.50;47.78;98996.16;5073179;28;20198;-70
2021/05/04 03:09:10;;;;;;;1.57;1.37;;;;;;;10.48;48.31;98990.25;5073237;28;20174;-73
2021/05/04 03:11:36;;;;;;;0.93;0.93;;;;;;;10.50;48.13;98965.31;5073092;28;20177;-72
2021/05/04 03:14:01;;;;;;;1.53;1.43;;;;;;;10.45;48.21;98974.56;5072727;28;20183;-71
2021/05/04 03:16:27;;;;;;;1.00;0.90;;;;;;;10.45;48.22;98968.31;5071860;28;20727;-72
2021/05/04 03:18:52;;;;;;;0.60;0.60;;;;;;;10.49;47.88;98950.06;5073083;28;20646;-71
2021/05/04 03:21:18;;;;;;;0.70;0.70;;;;;;;10.55;47.70;98945.94;5072864;28;20220;-75
2021/05/04 03:23:43;;;;;;;1.10;1.00;;;;;;;10.50;48.20;98921.63;5072786;28;20171;-73
2021/05/04 03:26:08;;;;;;;0.63;0.63;;;;;;;10.52;47.77;98922.06;5071478;28;20626;-72
2021/05/04 03:28:34;;;;;;;1.13;1.00;;;;;;;10.48;48.23;98916.53;5072803;28;20588;-72
2021/05/04 03:30:59;;;;;;;0.80;0.80;;;;;;;10.49;48.22;98918.09;5072614;28;20202;-72
2021/05/04 03:33:25;;;;;;;1.80;1.70;;;;;;;10.48;48.48;98905.59;5072541;28;20694;-71
2021/05/04 03:35:50;;;;;;;0.50;0.50;;;;;;;10.53;47.92;98891.69;5072699;28;20179;-72
2021/05/04 03:38:15;;;;;;;1.33;1.23;;;;;;;10.61;47.59;98884.50;5072660;28;20182;-71
2021/05/04 03:40:40;;;;;;;0.73;0.73;;;;;;;10.62;47.94;98881.41;5071191;28;20323;-72
2021/05/04 03:43:06;;;;;;;0.43;0.43;;;;;;;10.62;47.82;98875.16;5072441;28;20193;-73
2021/05/04 03:45:32;;;;;;;1.70;1.60;;;;;;;10.56;48.77;98871.06;5072336;28;20166;-73
2021/05/04 03:47:57;;;;;;;0.60;0.60;;;;;;;10.55;47.87;98864.81;5072255;28;20680;-73
2021/05/04 03:50:25;;;;;;;0.90;0.90;;;;;;;10.54;48.45;98863.22;5072388;28;20218;-74
2021/05/04 03:52:51;;;;;;;0.43;0.43;;;;;;;10.56;48.14;98860.16;5072333;28;20167;-71
2021/05/04 03:55:17;;;;;;;1.40;1.00;;;;;;;10.54;48.52;98851.53;5072316;28;20166;-73
2021/05/04 03:57:43;;;;;;;0.47;0.47;;;;;;;10.61;48.22;98841.59;5070839;28;20194;-71
2021/05/04 04:00:11;;;;;;;1.33;1.23;;;;;;;10.63;48.04;98844.75;5072040;28;20185;-72
2021/05/04 04:02:36;;;;;;;0.80;0.80;;;;;;;10.63;48.00;98854.88;5070613;28;20174;-72
2021/05/04 04:05:04;;;;;;;0.27;0.27;;;;;;;10.66;47.55;98841.31;5072059;28;20178;-70
2021/05/04 04:07:30;;;;;;;0.33;0.10;;;;;;;10.69;48.13;98853.47;5071895;28;20202;-72
2021/05/04 04:09:55;;;;;;;1.37;1.10;;;;;;;10.77;47.79;98859.94;5072016;28;20179;-71
2021/05/04 04:12:21;;;;;;;18.13;1.23;;;;;;;10.79;47.44;98846.69;5071904;28;20197;-71
2021/05/04 04:14:47;;;;;;;2.30;1.30;;;;;;;10.76;47.48;98859.13;5071772;28;20658;-71
2021/05/04 04:17:12;;;;;;;0.87;0.60;;;;;;;10.79;47.33;98842.03;5071860;28;20182;-73
2021/05/04 04:19:37;;;;;;;0.33;0.33;;;;;;;10.80;47.73;98860.00;5071809;28;20178;-73
2021/05/04 04:22:03;;;;;;;0.80;0.80;;;;;;;10.92;47.56;98879.06;5071615;28;20182;-72
2021/05/04 04:24:28;;;;;;;0.47;0.47;;;;;;;10.97;47.31;98867.06;5071719;28;20290;-74
2021/05/04 04:26:54;;;;;;;0.80;0.80;;;;;;;10.99;47.04;98865.59;5071157;28;20201;-71
2021/05/04 04:29:19;;;;;;;1.47;0.60;;;;;;;10.96;47.90;98862.75;5071591;28;20181;-75
2021/05/04 04:31:45;;;;;;;2.37;0.40;;;;;;;10.93;47.83;98852.53;5071571;28;20178;-71
2021/05/04 04:34:10;;;;;;;0.53;0.53;;;;;;;10.91;48.72;98843.91;5071504;28;20282;-73
2021/05/04 04:36:35;;;;;;;1.10;1.03;;;;;;;10.87;49.16;98873.06;5071561;28;20228;-73
2021/05/04 04:39:01;;;;;;;0.17;0.17;;;;;;;10.84;49.25;98849.97;5071433;28;20175;-72
2021/05/04 04:41:27;;;;;;;1.47;0.77;;;;;;;10.76;50.49;98822.81;5071572;28;20182;-72
2021/05/04 04:43:53;;;;;;;0.33;0.33;;;;;;;10.69;50.16;98829.69;5071345;28;20178;-70
2021/05/04 04:46:18;;;;;;;0.63;0.63;;;;;;;10.62;50.80;98840.44;5071134;28;20174;-73
2021/05/04 04:48:44;;;;;;;0.37;0.37;;;;;;;10.66;49.82;98826.88;5071213;28;20197;-70
2021/05/04 04:51:09;;;;;;;0.30;0.20;;;;;;;10.71;49.72;98841.06;5071341;28;20179;-73
2021/05/04 04:53:34;;;;;;;0.47;0.47;;;;;;;10.73;49.54;98819.66;5071546;28;20182;-71
2021/05/04 04:55:59;;;;;;;0.30;0.30;;;;;;;10.68;51.00;98821.84;5071217;28;20181;-73
2021/05/04 04:58:25;;;;;;;0.93;0.80;;;;;;;10.70;49.44;98814.09;5071039;28;20178;-71
2021/05/04 05:00:50;;;;;;;0.40;0.40;;;;;;;10.67;51.20;98820.25;5071163;28;20183;-74
2021/05/04 05:03:16;;;;;;;0.67;0.30;;;;;;;10.60;51.28;98809.16;5070986;28;20206;-75
2021/05/04 05:05:41;;;;;;;1.00;0.97;;;;;;;10.46;53.14;98825.19;5071200;28;20216;-71
2021/05/04 05:08:06;;;;;;;0.30;0.30;;;;;;;10.38;53.60;98838.63;5070893;28;20210;-75
2021/05/04 05:10:31;;;;;;;0.93;0.77;;;;;;;10.33;52.99;98835.38;5071092;28;20837;-74
2021/05/04 05:12:58;;;;;;;0.60;0.60;;;;;;;10.31;53.89;98821.28;5071127;28;20177;-73
2021/05/04 05:15:23;;;;;;;0.37;0.37;;;;;;;10.27;54.51;98804.00;5071209;28;20215;-70
2021/05/04 05:17:49;;;;;;;0.23;0.23;;;;;;;10.26;54.23;98810.59;5071022;28;20179;-72
2021/05/04 05:20:14;;;;;;;0.00;0.00;;;;;;;10.26;55.28;98813.34;5070742;28;20312;-70
2021/05/04 05:22:39;;;;;;;0.80;0.70;;;;;;;10.24;54.18;98812.88;5070682;28;20173;-71
2021/05/04 05:25:05;;;;;;;0.60;0.60;;;;;;;10.23;54.64;98812.09;5070887;28;20823;-71
2021/05/04 05:27:33;;;;;;;1.20;1.10;;;;;;;10.16;55.46;98811.88;5069436;28;20281;-74
2021/05/04 05:29:58;;;;;;;0.80;0.60;;;;;;;10.10;56.02;98824.19;5070765;28;20171;-71
2021/05/04 05:32:23;;;;;;;0.77;0.77;;;;;;;9.98;56.83;98822.31;5070735;28;20180;-72
2021/05/04 05:34:49;;;;;;;0.40;0.40;;;;;;;9.83;58.79;98820.31;5070850;28;20174;-71
2021/05/04 05:37:14;;;;;;;0.00;0.00;;;;;;;9.73;59.71;98824.31;5070703;28;20274;-73
2021/05/04 05:39:42;;;;;;;0.87;0.87;;;;;;;9.67;60.07;98833.06;5073926;28;20182;-71
2021/05/04 05:42:10;;;;;;;0.80;0.80;;;;;;;9.56;61.37;98837.44;5074575;28;20432;-71
2021/05/04 05:44:35;;;;;;;0.77;0.77;;;;;;;9.39;62.89;98847.44;5074868;28;20189;-72
2021/05/04 05:47:01;;;;;;;0.10;0.10;;;;;;;9.15;64.88;98829.19;5074743;28;20205;-71
2021/05/04 05:49:26;;;;;;;0.10;0.10;;;;;;;8.95;68.84;98836.31;5074729;28;20574;-70
2021/05/04 05:51:51;;;;;;;0.73;0.73;;;;;;;8.75;70.79;98863.66;5069269;28;20198;-73
2021/05/04 05:54:17;;;;;;;0.20;0.20;;;;;;;8.56;71.53;98862.28;5074467;28;20217;-71
2021/05/04 05:56:42;;;;;;;0.47;0.47;;;;;;;8.44;73.47;98854.06;5074462;28;20210;-74
2021/05/04 05:59:08;;;;;;;0.70;0.70;;;;;;;8.35;74.54;98845.97;5074502;28;20220;-76
2021/05/04 06:01:33;;;;;;;0.57;0.57;;;;;;;8.24;75.27;98838.53;5073321;28;20198;-75
2021/05/04 06:03:58;;;;;;;0.30;0.30;;;;;;;8.13;77.30;98845.56;5074293;28;20170;-71
2021/05/04 06:06:23;;;;;;;22.47;1.23;;;;;;;7.97;77.29;98843.44;5074257;28;20628;-71
2021/05/04 06:08:50;;;;;;;0.87;0.87;;;;;;;7.84;79.64;98833.63;5074223;28;20288;-71
2021/05/04 06:11:18;;;;;;;0.33;0.23;;;;;;;7.80;80.11;98823.75;5074197;28;20166;-71
2021/05/04 06:13:44;;;;;;;0.33;0.27;;;;;;;7.77;79.99;98827.94;5074196;28;20562;-71
2021/05/04 06:16:10;;;;;;;0.57;0.57;;;;;;;7.83;80.95;98825.81;5074289;28;20174;-72
2021/05/04 06:18:35;;;;;;;0.47;0.47;;;;;;;7.88;80.17;98823.69;5074018;28;20196;-72
2021/05/04 06:21:00;;;;;;;0.20;0.20;;;;;;;7.96;79.71;98825.53;5073932;28;20171;-72
2021/05/04 06:23:26;;;;;;;0.67;0.60;;;;;;;8.01;79.45;98805.50;5072640;28;20181;-71
2021/05/04 06:25:51;;;;;;;1.00;0.97;;;;;;;8.04;80.34;98805.63;5073843;28;20634;-70
2021/05/04 06:28:17;;;;;;;1.20;1.10;;;;;;;8.14;80.20;98807.13;5073763;28;20744;-72
2021/05/04 06:30:42;;;;;;;0.20;0.20;;;;;;;8.20;79.50;98797.63;5073956;28;20232;-70
2021/05/04 06:33:09;;;;;;;0.20;0.20;;;;;;;8.31;78.81;98798.78;5074113;28;20197;-71
2021/05/04 06:35:38;;;;;;;0.73;0.73;;;;;;;8.38;77.11;98771.03;5073796;28;20236;-72
2021/05/04 06:38:04;;;;;;;0.63;0.63;;;;;;;8.52;75.79;98776.16;5073752;28;20175;-73
2021/05/04 06:40:30;;;;;;;0.53;0.53;;;;;;;8.61;76.15;98793.19;5073622;28;20320;-71
2021/05/04 06:42:56;;;;;;;0.67;0.67;;;;;;;8.67;75.42;98780.94;5073752;28;20175;-71
2021/05/04 06:45:21;;;;;;;0.60;0.60;;;;;;;8.74;76.11;98761.34;5073702;28;20167;-71
2021/05/04 06:47:47;;;;;;;0.50;0.50;;;;;;;8.81;73.90;98773.22;5071318;28;20677;-71
2021/05/04 06:50:12;;;;;;;0.57;0.10;;;;;;;8.83;73.02;98773.72;5073518;28;20257;-72
2021/05/04 06:52:38;;;;;;;0.10;0.10;;;;;;;8.85;72.14;98762.47;5073396;28;20175;-71
2021/05/04 06:55:04;;;;;;;0.00;0.00;;;;;;;8.94;72.63;98758.47;5073260;28;20227;-72
2021/05/04 06:57:29;;;;;;;0.40;0.40;;;;;;;8.95;71.52;98738.28;5073414;28;20187;-71
2021/05/04 06:59:54;;;;;;;0.10;0.10;;;;;;;9.03;70.98;98747.47;5073647;28;20190;-73
2021/05/04 07:02:20;;;;;;;13.20;0.83;;;;;;;9.09;71.63;98739.84;5073605;28;20209;-73
2021/05/04 07:04:45;;;;;;;0.53;0.40;;;;;;;9.16;72.66;98735.41;5073529;28;20178;-71
2021/05/04 07:07:11;;;;;;;0.40;0.40;;;;;;;9.19;71.87;98744.84;5073140;28;20217;-71
2021/05/04 07:09:36;;;;;;;0.60;0.60;;;;;;;9.14;73.41;98731.47;5073172;28;20589;-70
2021/05/04 07:12:03;;;;;;;1.00;0.40;;;;;;;9.09;73.54;98750.75;5073167;28;20507;-70
2021/05/04 07:14:28;;;;;;;0.70;0.70;;;;;;;9.08;72.89;98724.63;5073121;28;20686;-72
2021/05/04 07:16:53;;;;;;;1.37;1.27;;;;;;;9.13;72.26;98725.22;5071710;28;20270;-71
2021/05/04 07:19:19;;;;;;;0.40;0.40;;;;;;;9.04;71.00;98727.25;5073026;28;20193;-74
2021/05/04 07:21:44;;;;;;;0.43;0.40;;;;;;;9.02;73.71;98729.53;5072942;28;20210;-72
2021/05/04 07:24:10;;;;;;;0.07;0.07;;;;;;;9.09;71.57;98721.56;5072837;28;20166;-70
2021/05/04 07:26:38;;;;;;;1.07;0.63;;;;;;;9.20;71.67;98717.25;5072855;28;20174;-71
2021/05/04 07:29:03;;;;;;;0.50;0.50;;;;;;;9.32;70.83;98700.06;5072832;28;20171;-71
2021/05/04 07:31:30;;;;;;;0.30;0.30;;;;;;;9.39;70.42;98697.53;5073243;28;20240;-71
2021/05/04 07:33:55;;;;;;;0.50;0.50;;;;;;;9.54;70.65;98701.44;5075744;28;20179;-71
2021/05/04 07:36:21;;;;;;;0.50;0.50;;;;;;;9.67;69.86;98697.53;5073526;28;20178;-70
2021/05/04 07:38:46;;;;;;;1.47;1.43;;;;;;;9.74;67.90;98684.09;5072716;28;20542;-71
2021/05/04 07:41:11;;;;;;;0.00;0.00;;;;;;;9.84;67.95;98675.41;5072555;28;20304;-71
2021/05/04 07:43:37;;;;;;;0.40;0.30;;;;;;;9.90;67.92;98692.31;5072457;28;20181;-70
2021/05/04 07:46:02;;;;;;;0.33;0.20;;;;;;;9.96;69.13;98685.44;5072406;28;20179;-70
2021/05/04 07:48:28;;;;;;;0.40;0.37;;;;;;;9.85;69.47;98678.94;5072077;28;20232;-70
2021/05/04 07:50:53;;;;;;;0.23;0.23;;;;;;;9.82;69.86;98693.25;5072290;28;20640;-70
2021/05/04 07:53:19;;;;;;;0.97;0.97;;;;;;;9.79;71.66;98686.56;5071977;28;20191;-70
2021/05/04 07:55:44;;;;;;;0.20;0.20;;;;;;;9.81;71.62;98703.38;5072320;28;20175;-70
2021/05/04 07:58:09;;;;;;;0.77;0.77;;;;;;;9.69;71.08;98694.44;5072132;28;20197;-70
2021/05/04 08:00:35;;;;;;;0.10;0.10;;;;;;;9.65;71.25;98697.09;5071576;28;20177;-70
2021/05/04 08:03:00;;;;;;;0.73;0.43;;;;;;;9.71;71.69;98698.44;5070289;28;20198;-71
2021/05/04 08:05:25;;;;;;;0.00;0.00;;;;;;;9.73;72.44;98679.78;5068958;28;20186;-70
2021/05/04 08:07:51;;;;;;;0.50;0.37;;;;;;;9.74;72.30;98686.84;5071282;28;20209;-70
2021/05/04 08:10:16;;;;;;;0.50;0.50;;;;;;;9.81;71.51;98687.00;5071581;28;20518;-70
2021/05/04 08:12:41;;;;;;;0.30;0.30;;;;;;;9.88;69.91;98700.06;5071972;28;20170;-70
2021/05/04 08:15:13;;;;;;;0.43;0.43;;;;;;;9.94;70.67;98693.19;5071692;28;20170;-70
2021/05/04 08:17:39;;;;;;;1.07;0.67;;;;;;;9.95;70.24;98697.50;5071162;28;20244;-70
2021/05/04 08:20:05;;;;;;;2.03;0.60;;;;;;;10.05;71.07;98688.81;5071578;28;20213;-69
2021/05/04 08:22:31;;;;;;;2.17;1.23;;;;;;;10.11;70.87;98695.56;5071434;28;20269;-70
2021/05/04 08:24:59;;;;;;;0.30;0.30;;;;;;;10.09;70.92;98689.69;5072173;28;20618;-73
2021/05/04 08:27:25;;;;;;;3.10;0.53;;;;;;;10.18;71.28;98684.06;5071579;28;20222;-70
2021/05/04 08:29:50;;;;;;;0.30;0.30;;;;;;;10.12;69.05;98671.81;5071814;28;20262;-71
2021/05/04 08:32:16;;;;;;;0.30;0.30;;;;;;;10.02;69.12;98681.34;5071407;28;20547;-70
2021/05/04 08:34:41;;;;;;;0.33;0.30;;;;;;;10.24;69.81;98662.78;5071416;28;20182;-69
2021/05/04 08:37:06;;;;;;;0.27;0.20;;;;;;;10.44;68.85;98664.47;5070096;28;20191;-69
2021/05/04 08:39:32;;;;;;;0.00;0.00;;;;;;;10.56;68.71;98647.97;5070798;28;20273;-69
2021/05/04 08:41:57;;;;;;;0.30;0.30;;;;;;;10.63;68.40;98647.34;5069116;28;20189;-70
2021/05/04 08:44:22;;;;;;;0.33;0.33;;;;;;;10.51;66.82;98631.84;5071287;28;20261;-71
2021/05/04 08:46:49;;;;;;;0.30;0.30;;;;;;;10.53;67.20;98634.22;5071085;28;20197;-72
2021/05/04 08:49:16;;;;;;;0.20;0.20;;;;;;;10.43;66.85;98641.81;5070986;28;20691;-72
2021/05/04 08:51:51;;;;;;;0.50;0.40;;;;;;;10.40;67.39;98636.25;5071012;28;20280;-70
2021/05/04 08:54:17;;;;;;;0.83;0.30;;;;;;;10.34;67.43;98621.31;5071098;28;20530;-70
2021/05/04 08:56:43;;;;;;;0.20;0.20;;;;;;;10.31;66.76;98611.09;5069736;28;20182;-71
2021/05/04 08:59:10;;;;;;;0.37;0.20;;;;;;;10.26;66.18;98635.94;5070983;28;20237;-70
2021/05/04 09:01:36;;;;;;;0.60;0.60;;;;;;;10.17;67.18;98641.53;5070894;28;20265;-70
2021/05/04 09:04:06;;;;;;;2.23;0.37;;;;;;;10.18;67.70;98637.69;5070866;28;20230;-70
2021/05/04 09:06:36;;;;;;;0.23;0.23;;;;;;;10.15;67.78;98643.84;5070686;28;20232;-71
2021/05/04 09:09:08;;;;;;;0.27;0.27;;;;;;;10.19;67.39;98631.06;5071094;28;20178;-71
2021/05/04 09:21:55;;;;;;;0.10;0.10;;;;;;;10.61;64.96;98635.97;5070766;28;20196;-70
2021/05/04 09:24:27;;;;;;;3.60;0.63;;;;;;;10.54;64.06;98628.41;5070709;28;20169;-71
2021/05/04 09:27:16;;;;;;;0.00;0.00;;;;;;;10.50;64.25;98629.47;5070723;28;20210;-70
2021/05/04 09:29:54;;;;;;;0.27;0.27;;;;;;;10.41;65.25;98630.47;5064925;28;20197;-71
2021/05/04 09:32:27;;;;;;;1.40;1.30;;;;;;;10.33;65.71;98628.72;5070471;28;20751;-71
2021/05/04 09:34:53;;;;;;;0.37;0.37;;;;;;;10.30;65.61;98634.09;5070578;28;20235;-71
2021/05/04 09:37:28;;;;;;;0.27;0.27;;;;;;;10.27;66.06;98630.13;5070519;28;20698;-72
2021/05/04 09:39:55;;;;;;;0.10;0.10;;;;;;;10.28;66.79;98620.00;5070586;28;20198;-70
2021/05/04 09:42:20;;;;;;;0.57;0.50;;;;;;;10.25;67.28;98628.88;5070299;28;20257;-71
2021/05/04 09:44:49;;;;;;;0.00;0.00;;;;;;;10.21;66.52;98615.16;5070535;28;20656;-71
2021/05/04 09:47:28;;;;;;;0.10;0.10;;;;;;;10.27;67.11;98621.94;5070416;28;20692;-75
2021/05/04 09:49:56;;;;;;;0.20;0.20;;;;;;;10.41;67.39;98602.34;5070543;28;20170;-73
2021/05/04 09:52:38;;;;;;;0.27;0.20;;;;;;;10.43;66.27;98598.16;5070280;28;20175;-72
2021/05/04 09:55:11;;;;;;;0.20;0.20;;;;;;;10.47;66.68;98587.31;5070544;28;20627;-74
2021/05/04 09:57:46;;;;;;;0.10;0.10;;;;;;;10.50;66.34;98593.97;5069666;28;20170;-71
2021/05/04 10:00:17;;;;;;;3.80;0.40;;;;;;;10.56;66.45;98593.38;5069927;28;20205;-71
2021/05/04 10:02:45;;;;;;;0.50;0.30;;;;;;;10.60;66.02;98588.75;5068187;28;20231;-71
2021/05/04 10:05:17;;;;;;;0.03;0.03;;;;;;;10.74;65.79;98585.56;5070137;28;20523;-71
2021/05/04 10:07:43;;;;;;;0.10;0.10;;;;;;;10.85;65.30;98588.47;5069808;28;20194;-72
2021/05/04 10:10:11;;;;;;;0.60;0.33;;;;;;;10.83;65.44;98580.66;5069914;28;20221;-71
2021/05/04 10:12:38;;;;;;;0.30;0.30;;;;;;;10.71;65.13;98584.31;5069843;28;20587;-71
2021/05/04 10:15:07;;;;;;;0.30;0.30;;;;;;;10.62;66.13;98600.13;5068691;28;20190;-71
2021/05/04 10:17:34;;;;;;;0.30;0.30;;;;;;;10.61;66.63;98586.81;5062506;28;20546;-71
2021/05/04 10:20:18;;;;;;;0.00;0.00;;;;;;;10.64;66.48;98597.03;5069987;28;20171;-71
2021/05/04 10:22:43;;;;;;;0.30;0.20;;;;;;;10.59;65.88;98603.56;5069823;28;20166;-71
2021/05/04 10:25:14;;;;;;;0.20;0.20;;;;;;;10.63;66.71;98587.25;5071781;28;20175;-71
2021/05/04 10:27:42;;;;;;;0.10;0.10;;;;;;;10.63;66.18;98570.88;5073262;28;20673;-71
2021/05/04 10:30:09;;;;;;;0.30;0.30;;;;;;;10.78;65.71;98580.16;5073609;28;20175;-71
2021/05/04 10:33:07;;;;;;;1.17;0.20;;;;;;;10.87;64.61;98592.47;5073099;28;20198;-71
2021/05/04 10:35:37;;;;;;;19.53;0.47;;;;;;;11.00;65.18;98569.31;5072631;28;20658;-73
2021/05/04 10:38:05;;;;;;;0.20;0.20;;;;;;;11.12;64.74;98576.56;5073104;28;20696;-73
2021/05/04 10:40:34;;;;;;;0.00;0.00;;;;;;;11.17;64.20;98595.41;5073053;28;20240;-70
2021/05/04 10:43:23;;;;;;;0.30;0.30;;;;;;;11.24;64.57;98572.88;5070268;28;20261;-71
2021/05/04 10:45:56;;;;;;;0.10;0.10;;;;;;;11.22;64.34;98561.50;5063488;28;20190;-71
2021/05/04 10:48:41;;;;;;;0.03;0.03;;;;;;;11.14;63.84;98563.34;5069292;28;20217;-70
2021/05/04 10:51:15;;;;;;;0.10;0.10;;;;;;;11.13;63.73;98550.78;5066023;28;20177;-70
2021/05/04 10:53:53;;;;;;;0.00;0.00;;;;;;;11.10;62.88;98557.00;5073235;28;20177;-70
2021/05/04 10:56:37;;;;;;;0.20;0.20;;;;;;;11.13;62.46;98550.00;5052682;28;20718;-70
2021/05/04 10:59:05;;;;;;;0.10;0.10;;;;;;;11.13;63.03;98541.81;5052310;28;20182;-69
2021/05/04 11:01:31;;;;;;;0.10;0.10;;;;;;;11.15;63.23;98564.13;5052997;28;20172;-70
2021/05/04 11:03:58;;;;;;;0.33;0.33;;;;;;;11.15;63.04;98539.53;5053076;28;20190;-71
2021/05/04 11:06:23;;;;;;;2.83;1.27;;;;;;;11.23;62.55;98552.16;5056190;28;20640;-71
2021/05/04 11:08:49;;;;;;;0.23;0.23;;;;;;;11.36;63.05;98539.91;5071663;28;20202;-70
2021/05/04 11:11:39;;;;;;;0.20;0.20;;;;;;;11.43;62.95;98531.84;5073031;28;20261;-72
2021/05/04 11:14:26;;;;;;;0.10;0.00;;;;;;;11.46;62.87;98505.72;5072977;28;20232;-71
2021/05/04 11:16:56;;;;;;;0.17;0.17;;;;;;;11.46;62.53;98522.13;5073506;28;20175;-71
2021/05/04 11:19:28;;;;;;;1.07;0.60;;;;;;;11.48;62.90;98520.59;5073408;28;20632;-71
2021/05/04 11:21:57;;;;;;;0.27;0.10;;;;;;;11.45;63.83;98518.59;5072872;28;20182;-72
2021/05/04 11:24:35;;;;;;;1.30;0.10;;;;;;;11.40;63.50;98502.47;5072015;28;20522;-71
2021/05/04 11:27:00;;;;;;;0.37;0.37;;;;;;;11.34;62.66;98512.16;5072970;28;20552;-72
2021/05/04 11:29:32;;;;;;;0.00;0.00;;;;;;;11.32;64.41;98520.72;5072808;28;20167;-71
2021/05/04 11:32:19;;;;;;;0.07;0.07;;;;;;;11.14;65.00;98502.41;5072890;28;20178;-70
2021/05/04 11:34:50;;;;;;;0.33;0.33;;;;;;;11.07;66.68;98521.41;5072941;28;20178;-72
2021/05/04 11:37:24;;;;;;;0.30;0.30;;;;;;;10.96;68.12;98532.13;5071589;28;20198;-73
2021/05/04 11:39:53;;;;;;;0.20;0.20;;;;;;;10.69;70.87;98529.25;5072475;28;20181;-73
2021/05/04 11:42:39;;;;;;;0.20;0.20;;;;;;;10.48;70.78;98528.81;5069707;28;20232;-74
2021/05/04 11:45:13;;;;;;;0.20;0.20;;;;;;;10.41;72.32;98518.53;5072386;28;20670;-70
2021/05/04 11:47:47;;;;;;;0.43;0.30;;;;;;;10.46;71.50;98500.28;5069423;28;20688;-74